sensor_id;sensor_type;location;lat;lon;timestamp;pressure;altitude;pressure_sealevel;temperature;humidity
35704;BME280;21820;51.112;13.762;2023-11-21T00:00:20;98691.66;;;23.31;57.68
35704;BME280;21820;51.112;13.762;2023-11-21T00:02:45;98688.25;;;23.30;57.28
35704;BME280;21820;51.112;13.762;2023-11-21T00:05:11;98676.13;;;23.21;58.25
35704;BME280;21820;51.112;13.762;2023-11-21T00:07:38;98673.16;;;23.24;57.30
35704;BME280;21820;51.112;13.762;2023-11-21T00:10:04;98685.75;;;23.37;58.20
35704;BME280;21820;51.112;13.762;2023-11-21T00:12:33;98701.16;;;23.40;58.07
35704;BME280;21820;51.112;13.762;2023-11-21T00:14:58;98675.94;;;23.31;58.52
35704;BME280;21820;51.112;13.762;2023-11-21T00:17:23;98698.16;;;23.43;57.96
35704;BME280;21820;51.112;13.762;2023-11-21T00:19:49;98693.56;;;23.45;57.77
35704;BME280;21820;51.112;13.762;2023-11-21T00:22:14;98703.91;;;23.46;58.04
35704;BME280;21820;51.112;13.762;2023-11-21T00:24:41;98702.88;;;23.47;57.65
35704;BME280;21820;51.112;13.762;2023-11-21T00:27:06;98693.56;;;23.45;58.32
35704;BME280;21820;51.112;13.762;2023-11-21T00:29:31;98696.03;;;23.46;58.49
35704;BME280;21820;51.112;13.762;2023-11-21T00:31:57;98698.00;;;23.44;58.32
35704;BME280;21820;51.112;13.762;2023-11-21T00:34:23;98699.78;;;23.44;58.46
35704;BME280;21820;51.112;13.762;2023-11-21T00:36:48;98701.28;;;23.46;58.08
35704;BME280;21820;51.112;13.762;2023-11-21T00:39:13;98696.03;;;23.46;57.86
35704;BME280;21820;51.112;13.762;2023-11-21T00:41:38;98707.16;;;23.48;58.69
35704;BME280;21820;51.112;13.762;2023-11-21T00:44:04;98698.47;;;23.48;58.60
35704;BME280;21820;51.112;13.762;2023-11-21T00:46:29;98698.47;;;23.48;58.45
35704;BME280;21820;51.112;13.762;2023-11-21T00:48:55;98698.00;;;23.44;58.19
35704;BME280;21820;51.112;13.762;2023-11-21T00:51:20;98711.88;;;23.53;58.53
35704;BME280;21820;51.112;13.762;2023-11-21T00:53:45;98686.56;;;23.37;57.75
35704;BME280;21820;51.112;13.762;2023-11-21T00:56:11;98708.25;;;23.54;57.86
35704;BME280;21820;51.112;13.762;2023-11-21T00:58:37;98714.34;;;23.54;58.20
35704;BME280;21820;51.112;13.762;2023-11-21T01:01:02;98713.50;;;23.54;58.20
35704;BME280;21820;51.112;13.762;2023-11-21T01:03:28;98684.56;;;23.39;57.38
35704;BME280;21820;51.112;13.762;2023-11-21T01:05:53;98710.72;;;23.55;57.56
35704;BME280;21820;51.112;13.762;2023-11-21T01:08:19;98719.56;;;23.54;57.75
35704;BME280;21820;51.112;13.762;2023-11-21T01:10:44;98726.44;;;23.55;57.73
35704;BME280;21820;51.112;13.762;2023-11-21T01:13:10;98722.19;;;23.54;57.72
35704;BME280;21820;51.112;13.762;2023-11-21T01:15:35;98725.84;;;23.53;57.93
35704;BME280;21820;51.112;13.762;2023-11-21T01:18:00;98724.66;;;23.56;57.41
35704;BME280;21820;51.112;13.762;2023-11-21T01:20:26;98723.22;;;23.53;57.31
35704;BME280;21820;51.112;13.762;2023-11-21T01:22:51;98727.44;;;23.54;57.40
35704;BME280;21820;51.112;13.762;2023-11-21T01:25:16;98723.81;;;23.55;57.61
35704;BME280;21820;51.112;13.762;2023-11-21T01:27:42;98696.06;;;23.38;57.25
35704;BME280;21820;51.112;13.762;2023-11-21T01:30:08;98731.25;;;23.52;57.73
35704;BME280;21820;51.112;13.762;2023-11-21T01:32:35;98732.06;;;23.52;58.22
35704;BME280;21820;51.112;13.762;2023-11-21T01:35:01;98725.53;;;23.48;57.90
35704;BME280;21820;51.112;13.762;2023-11-21T01:37:26;98736.03;;;23.48;57.77
35704;BME280;21820;51.112;13.762;2023-11-21T01:39:53;98732.41;;;23.49;57.83
35704;BME280;21820;51.112;13.762;2023-11-21T01:42:18;98728.81;;;23.50;58.14
35704;BME280;21820;51.112;13.762;2023-11-21T01:44:43;98732.41;;;23.49;58.07
35704;BME280;21820;51.112;13.762;2023-11-21T01:47:09;98719.97;;;23.43;58.06
35704;BME280;21820;51.112;13.762;2023-11-21T01:49:34;98729.13;;;23.47;58.31
35704;BME280;21820;51.112;13.762;2023-11-21T01:52:00;98726.19;;;23.50;57.74
35704;BME280;21820;51.112;13.762;2023-11-21T01:54:26;98709.19;;;23.38;57.35
35704;BME280;21820;51.112;13.762;2023-11-21T01:56:52;98729.13;;;23.47;58.37
35704;BME280;21820;51.112;13.762;2023-11-21T01:59:18;98727.50;;;23.46;57.71
35704;BME280;21820;51.112;13.762;2023-11-21T02:01:45;98729.31;;;23.46;58.11
35704;BME280;21820;51.112;13.762;2023-11-21T02:04:12;98724.06;;;23.46;57.94
35704;BME280;21820;51.112;13.762;2023-11-21T02:06:37;98723.25;;;23.45;57.93
35704;BME280;21820;51.112;13.762;2023-11-21T02:09:02;98703.00;;;23.31;57.69
35704;BME280;21820;51.112;13.762;2023-11-21T02:11:29;98716.41;;;23.36;57.63
35704;BME280;21820;51.112;13.762;2023-11-21T02:13:55;98739.00;;;23.45;58.22
35704;BME280;21820;51.112;13.762;2023-11-21T02:16:20;98736.38;;;23.45;58.20
35704;BME280;21820;51.112;13.762;2023-11-21T02:18:46;98743.25;;;23.46;57.62
35704;BME280;21820;51.112;13.762;2023-11-21T02:21:13;98750.09;;;23.47;57.85
35704;BME280;21820;51.112;13.762;2023-11-21T02:23:39;98746.53;;;23.48;57.79
35704;BME280;21820;51.112;13.762;2023-11-21T02:26:07;98750.09;;;23.47;57.75
35704;BME280;21820;51.112;13.762;2023-11-21T02:28:32;98741.63;;;23.45;57.52
35704;BME280;21820;51.112;13.762;2023-11-21T02:30:58;98744.25;;;23.45;58.31
35704;BME280;21820;51.112;13.762;2023-11-21T02:33:24;98744.06;;;23.47;58.00
35704;BME280;21820;51.112;13.762;2023-11-21T02:35:49;98742.59;;;23.44;58.09
35704;BME280;21820;51.112;13.762;2023-11-21T02:38:14;98715.44;;;23.29;58.24
35704;BME280;21820;51.112;13.762;2023-11-21T02:40:40;98741.31;;;23.40;58.46
35704;BME280;21820;51.112;13.762;2023-11-21T02:43:06;98749.81;;;23.42;58.44
35704;BME280;21820;51.112;13.762;2023-11-21T02:45:31;98742.28;;;23.39;58.42
35704;BME280;21820;51.112;13.762;2023-11-21T02:47:56;98749.19;;;23.40;57.44
35704;BME280;21820;51.112;13.762;2023-11-21T02:50:22;98743.94;;;23.40;57.78
35704;BME280;21820;51.112;13.762;2023-11-21T02:52:47;98740.63;;;23.46;58.32
35704;BME280;21820;51.112;13.762;2023-11-21T02:55:13;98752.44;;;23.42;57.88
35704;BME280;21820;51.112;13.762;2023-11-21T02:57:38;98749.97;;;23.41;58.25
35704;BME280;21820;51.112;13.762;2023-11-21T03:00:03;98755.56;;;23.38;58.28
35704;BME280;21820;51.112;13.762;2023-11-21T03:02:32;98763.28;;;23.39;58.36
35704;BME280;21820;51.112;13.762;2023-11-21T03:04:57;98762.94;;;23.42;58.45
35704;BME280;21820;51.112;13.762;2023-11-21T03:07:22;98740.88;;;23.29;58.44
35704;BME280;21820;51.112;13.762;2023-11-21T03:09:48;98763.28;;;23.39;58.53
35704;BME280;21820;51.112;13.762;2023-11-21T03:12:13;98730.22;;;23.22;57.76
35704;BME280;21820;51.112;13.762;2023-11-21T03:14:39;98750.69;;;23.35;58.40
35704;BME280;21820;51.112;13.762;2023-11-21T03:17:04;98764.28;;;23.38;57.84
35704;BME280;21820;51.112;13.762;2023-11-21T03:19:30;98760.81;;;23.38;58.62
35704;BME280;21820;51.112;13.762;2023-11-21T03:21:55;98733.81;;;23.21;58.51
35704;BME280;21820;51.112;13.762;2023-11-21T03:24:20;98764.44;;;23.37;57.90
35704;BME280;21820;51.112;13.762;2023-11-21T03:26:47;98766.25;;;23.36;58.42
35704;BME280;21820;51.112;13.762;2023-11-21T03:29:12;98761.00;;;23.36;58.03
35704;BME280;21820;51.112;13.762;2023-11-21T03:31:38;98756.09;;;23.33;57.95
35704;BME280;21820;51.112;13.762;2023-11-21T03:34:03;98766.59;;;23.33;58.22
35704;BME280;21820;51.112;13.762;2023-11-21T03:36:28;98763.13;;;23.33;58.50
35704;BME280;21820;51.112;13.762;2023-11-21T03:38:54;98764.94;;;23.32;58.40
35704;BME280;21820;51.112;13.762;2023-11-21T03:41:20;98769.38;;;23.32;57.84
35704;BME280;21820;51.112;13.762;2023-11-21T03:43:45;98769.38;;;23.32;58.21
35704;BME280;21820;51.112;13.762;2023-11-21T03:46:11;98768.56;;;23.31;58.27
35704;BME280;21820;51.112;13.762;2023-11-21T03:48:37;98750.91;;;23.17;58.11
35704;BME280;21820;51.112;13.762;2023-11-21T03:51:02;98772.19;;;23.30;57.83
35704;BME280;21820;51.112;13.762;2023-11-21T03:53:28;98778.41;;;23.29;57.85
35704;BME280;21820;51.112;13.762;2023-11-21T03:55:53;98780.06;;;23.30;57.99
35704;BME280;21820;51.112;13.762;2023-11-21T03:58:18;98782.69;;;23.30;57.73
35704;BME280;21820;51.112;13.762;2023-11-21T04:00:43;98773.97;;;23.30;58.02
35704;BME280;21820;51.112;13.762;2023-11-21T04:03:09;98768.72;;;23.30;57.84
35704;BME280;21820;51.112;13.762;2023-11-21T04:05:34;98775.78;;;23.29;57.99
35704;BME280;21820;51.112;13.762;2023-11-21T04:07:59;98777.88;;;23.25;58.06
35704;BME280;21820;51.112;13.762;2023-11-21T04:10:24;98783.13;;;23.25;58.06
35704;BME280;21820;51.112;13.762;2023-11-21T04:12:49;98783.00;;;23.27;57.97
35704;BME280;21820;51.112;13.762;2023-11-21T04:15:15;98780.06;;;23.30;58.36
35704;BME280;21820;51.112;13.762;2023-11-21T04:17:40;98775.13;;;23.27;58.20
35704;BME280;21820;51.112;13.762;2023-11-21T04:20:06;98776.25;;;23.24;58.42
35704;BME280;21820;51.112;13.762;2023-11-21T04:22:38;98775.13;;;23.27;58.17
35704;BME280;21820;51.112;13.762;2023-11-21T04:25:06;98782.34;;;23.25;58.70
35704;BME280;21820;51.112;13.762;2023-11-21T04:27:31;98778.88;;;23.24;58.36
35704;BME280;21820;51.112;13.762;2023-11-21T04:29:57;98764.31;;;23.14;58.66
35704;BME280;21820;51.112;13.762;2023-11-21T04:32:22;98785.91;;;23.24;57.82
35704;BME280;21820;51.112;13.762;2023-11-21T04:34:47;98789.88;;;23.28;58.21
35704;BME280;21820;51.112;13.762;2023-11-21T04:37:12;98797.75;;;23.28;58.58
35704;BME280;21820;51.112;13.762;2023-11-21T04:39:38;98794.31;;;23.19;58.37
35704;BME280;21820;51.112;13.762;2023-11-21T04:42:03;98780.47;;;22.95;58.63
35704;BME280;21820;51.112;13.762;2023-11-21T04:44:28;98807.66;;;23.02;57.86
35704;BME280;21820;51.112;13.762;2023-11-21T04:46:54;98809.22;;;23.19;57.58
35704;BME280;21820;51.112;13.762;2023-11-21T04:49:19;98803.06;;;23.51;56.61
35704;BME280;21820;51.112;13.762;2023-11-21T04:51:44;98808.09;;;23.68;55.84
35704;BME280;21820;51.112;13.762;2023-11-21T04:54:09;98804.72;;;23.82;54.63
35704;BME280;21820;51.112;13.762;2023-11-21T04:56:35;98811.22;;;23.94;54.95
35704;BME280;21820;51.112;13.762;2023-11-21T04:59:00;98809.72;;;24.00;55.11
35704;BME280;21820;51.112;13.762;2023-11-21T05:01:25;98803.59;;;24.07;54.51
35704;BME280;21820;51.112;13.762;2023-11-21T05:03:51;98808.97;;;24.14;54.34
35704;BME280;21820;51.112;13.762;2023-11-21T05:06:17;98785.41;;;24.06;54.17
35704;BME280;21820;51.112;13.762;2023-11-21T05:08:42;98800.38;;;24.20;54.37
35704;BME280;21820;51.112;13.762;2023-11-21T05:11:08;98813.69;;;24.18;54.28
35704;BME280;21820;51.112;13.762;2023-11-21T05:13:35;98818.66;;;24.13;54.24
35704;BME280;21820;51.112;13.762;2023-11-21T05:16:00;98813.09;;;24.08;54.26
35704;BME280;21820;51.112;13.762;2023-11-21T05:18:29;98821.03;;;24.00;55.01
35704;BME280;21820;51.112;13.762;2023-11-21T05:20:54;98818.59;;;23.91;54.96
35704;BME280;21820;51.112;13.762;2023-11-21T05:23:20;98820.06;;;23.93;55.01
35704;BME280;21820;51.112;13.762;2023-11-21T05:25:45;98829.91;;;23.99;54.57
35704;BME280;21820;51.112;13.762;2023-11-21T05:28:11;98838.28;;;24.03;54.48
35704;BME280;21820;51.112;13.762;2023-11-21T05:30:36;98835.47;;;24.04;54.48
35704;BME280;21820;51.112;13.762;2023-11-21T05:33:03;98835.41;;;24.12;53.96
35704;BME280;21820;51.112;13.762;2023-11-21T05:35:28;98833.91;;;24.18;54.46
35704;BME280;21820;51.112;13.762;2023-11-21T05:37:53;98833.38;;;24.22;53.92
35704;BME280;21820;51.112;13.762;2023-11-21T05:40:19;98832.97;;;24.33;54.41
35704;BME280;21820;51.112;13.762;2023-11-21T05:42:47;98837.34;;;24.41;53.55
35704;BME280;21820;51.112;13.762;2023-11-21T05:45:13;98841.19;;;24.53;53.09
35704;BME280;21820;51.112;13.762;2023-11-21T05:47:41;98833.03;;;24.63;53.48
35704;BME280;21820;51.112;13.762;2023-11-21T05:50:08;98840.78;;;24.64;53.02
35704;BME280;21820;51.112;13.762;2023-11-21T05:52:37;98839.25;;;24.70;52.70
35704;BME280;21820;51.112;13.762;2023-11-21T05:55:03;98836.91;;;24.75;52.83
35704;BME280;21820;51.112;13.762;2023-11-21T05:57:32;98838.22;;;24.79;52.77
35704;BME280;21820;51.112;13.762;2023-11-21T05:59:57;98831.69;;;24.67;53.21
35704;BME280;21820;51.112;13.762;2023-11-21T06:02:22;98849.47;;;24.65;53.10
35704;BME280;21820;51.112;13.762;2023-11-21T06:04:47;98847.72;;;24.57;53.13
35704;BME280;21820;51.112;13.762;2023-11-21T06:07:13;98842.06;;;24.45;53.67
35704;BME280;21820;51.112;13.762;2023-11-21T06:09:38;98851.16;;;24.35;54.27
35704;BME280;21820;51.112;13.762;2023-11-21T06:12:03;98845.22;;;24.18;53.81
35704;BME280;21820;51.112;13.762;2023-11-21T06:14:29;98856.25;;;24.14;54.87
35704;BME280;21820;51.112;13.762;2023-11-21T06:16:54;98855.81;;;24.02;54.56
35704;BME280;21820;51.112;13.762;2023-11-21T06:19:21;98862.06;;;23.93;55.11
35704;BME280;21820;51.112;13.762;2023-11-21T06:21:46;98873.97;;;23.81;55.78
35704;BME280;21820;51.112;13.762;2023-11-21T06:24:12;98867.75;;;23.74;55.68
35704;BME280;21820;51.112;13.762;2023-11-21T06:26:37;98876.00;;;23.63;56.01
35704;BME280;21820;51.112;13.762;2023-11-21T06:29:03;98854.88;;;23.49;56.10
35704;BME280;21820;51.112;13.762;2023-11-21T06:31:29;98871.41;;;23.57;56.16
35704;BME280;21820;51.112;13.762;2023-11-21T06:33:54;98875.34;;;23.61;56.37
35704;BME280;21820;51.112;13.762;2023-11-21T06:36:19;98877.28;;;23.67;56.03
35704;BME280;21820;51.112;13.762;2023-11-21T06:38:45;98858.94;;;23.59;55.60
35704;BME280;21820;51.112;13.762;2023-11-21T06:41:11;98879.69;;;23.85;55.78
35704;BME280;21820;51.112;13.762;2023-11-21T06:43:36;98884.25;;;23.91;55.88
35704;BME280;21820;51.112;13.762;2023-11-21T06:46:01;98885.53;;;24.03;55.08
35704;BME280;21820;51.112;13.762;2023-11-21T06:48:27;98892.84;;;24.15;54.42
35704;BME280;21820;51.112;13.762;2023-11-21T06:50:52;98883.28;;;24.22;54.64
35704;BME280;21820;51.112;13.762;2023-11-21T06:53:17;98883.53;;;24.35;54.43
35704;BME280;21820;51.112;13.762;2023-11-21T06:55:42;98883.47;;;24.43;53.56
35704;BME280;21820;51.112;13.762;2023-11-21T06:58:08;98879.31;;;24.49;54.16
35704;BME280;21820;51.112;13.762;2023-11-21T07:00:33;98884.34;;;24.59;53.27
35704;BME280;21820;51.112;13.762;2023-11-21T07:02:59;98888.41;;;24.69;52.72
35704;BME280;21820;51.112;13.762;2023-11-21T07:05:24;98888.53;;;24.76;53.11
35704;BME280;21820;51.112;13.762;2023-11-21T07:07:49;98890.53;;;24.66;51.67
35704;BME280;21820;51.112;13.762;2023-11-21T07:10:15;98891.22;;;24.60;51.85
35704;BME280;21820;51.112;13.762;2023-11-21T07:12:40;98887.97;;;24.58;52.00
35704;BME280;21820;51.112;13.762;2023-11-21T07:15:06;98892.94;;;24.53;52.27
35704;BME280;21820;51.112;13.762;2023-11-21T07:17:34;98899.41;;;24.42;52.84
35704;BME280;21820;51.112;13.762;2023-11-21T07:20:00;98894.38;;;24.32;53.29
35704;BME280;21820;51.112;13.762;2023-11-21T07:22:25;98904.31;;;24.22;52.92
35704;BME280;21820;51.112;13.762;2023-11-21T07:24:50;98906.16;;;24.14;53.66
35704;BME280;21820;51.112;13.762;2023-11-21T07:27:16;98910.78;;;24.04;53.53
35704;BME280;21820;51.112;13.762;2023-11-21T07:29:41;98914.75;;;24.00;54.03
35704;BME280;21820;51.112;13.762;2023-11-21T07:32:06;98902.19;;;23.79;53.95
35704;BME280;21820;51.112;13.762;2023-11-21T07:34:31;98914.13;;;23.82;53.95
35704;BME280;21820;51.112;13.762;2023-11-21T07:36:57;98917.59;;;23.82;54.52
35704;BME280;21820;51.112;13.762;2023-11-21T07:39:22;98916.75;;;23.82;54.59
35704;BME280;21820;51.112;13.762;2023-11-21T07:41:47;98915.28;;;23.87;54.08
35704;BME280;21820;51.112;13.762;2023-11-21T07:44:14;98919.03;;;23.93;53.69
35704;BME280;21820;51.112;13.762;2023-11-21T07:46:39;98924.44;;;23.99;53.66
35704;BME280;21820;51.112;13.762;2023-11-21T07:49:05;98925.69;;;24.11;53.63
35704;BME280;21820;51.112;13.762;2023-11-21T07:51:30;98937.75;;;24.28;53.37
35704;BME280;21820;51.112;13.762;2023-11-21T07:53:56;98930.09;;;24.41;53.33
35704;BME280;21820;51.112;13.762;2023-11-21T07:56:21;98936.97;;;24.51;52.31
35704;BME280;21820;51.112;13.762;2023-11-21T07:58:46;98929.97;;;24.66;52.65
35704;BME280;21820;51.112;13.762;2023-11-21T08:01:11;98934.84;;;24.77;52.36
35704;BME280;21820;51.112;13.762;2023-11-21T08:03:37;98941.31;;;24.89;52.07
35704;BME280;21820;51.112;13.762;2023-11-21T08:06:02;98933.19;;;24.98;51.81
35704;BME280;21820;51.112;13.762;2023-11-21T08:08:30;98946.09;;;25.08;51.44
35704;BME280;21820;51.112;13.762;2023-11-21T08:10:57;98943.56;;;25.14;51.69
35704;BME280;21820;51.112;13.762;2023-11-21T08:13:26;98937.50;;;25.14;51.00
35704;BME280;21820;51.112;13.762;2023-11-21T08:15:55;98942.28;;;25.10;51.41
35704;BME280;21820;51.112;13.762;2023-11-21T08:18:21;98936.00;;;24.97;51.24
35704;BME280;21820;51.112;13.762;2023-11-21T08:20:46;98933.63;;;24.87;51.36
35704;BME280;21820;51.112;13.762;2023-11-21T08:23:15;98944.63;;;24.83;51.43
35704;BME280;21820;51.112;13.762;2023-11-21T08:25:42;98946.53;;;24.74;52.09
35704;BME280;21820;51.112;13.762;2023-11-21T08:28:07;98955.59;;;24.64;51.99
35704;BME280;21820;51.112;13.762;2023-11-21T08:30:33;98946.28;;;24.53;52.21
35704;BME280;21820;51.112;13.762;2023-11-21T08:32:58;98932.13;;;24.31;52.27
35704;BME280;21820;51.112;13.762;2023-11-21T08:35:24;98944.59;;;24.37;52.67
35704;BME280;21820;51.112;13.762;2023-11-21T08:37:52;98954.16;;;24.30;52.98
35704;BME280;21820;51.112;13.762;2023-11-21T08:40:20;98951.59;;;24.22;53.59
35704;BME280;21820;51.112;13.762;2023-11-21T08:42:46;98936.22;;;24.03;53.74
35704;BME280;21820;51.112;13.762;2023-11-21T08:45:11;98956.56;;;24.09;53.38
35704;BME280;21820;51.112;13.762;2023-11-21T08:47:38;98959.81;;;24.11;53.57
35704;BME280;21820;51.112;13.762;2023-11-21T08:50:03;98957.06;;;24.13;53.68
35704;BME280;21820;51.112;13.762;2023-11-21T08:52:28;98964.41;;;24.17;52.66
35704;BME280;21820;51.112;13.762;2023-11-21T08:54:54;98965.69;;;24.21;50.46
35704;BME280;21820;51.112;13.762;2023-11-21T08:57:21;98965.81;;;24.28;50.25
35704;BME280;21820;51.112;13.762;2023-11-21T08:59:47;98963.97;;;24.36;49.45
35704;BME280;21820;51.112;13.762;2023-11-21T09:02:12;98960.50;;;24.44;49.02
35704;BME280;21820;51.112;13.762;2023-11-21T09:04:37;98933.25;;;24.37;49.11
35704;BME280;21820;51.112;13.762;2023-11-21T09:07:03;98964.19;;;24.58;49.08
35704;BME280;21820;51.112;13.762;2023-11-21T09:09:28;98971.38;;;24.64;48.47
35704;BME280;21820;51.112;13.762;2023-11-21T09:11:54;98977.59;;;24.71;48.50
35704;BME280;21820;51.112;13.762;2023-11-21T09:14:20;98980.84;;;24.73;48.72
35704;BME280;21820;51.112;13.762;2023-11-21T09:16:45;98981.13;;;24.86;48.09
35704;BME280;21820;51.112;13.762;2023-11-21T09:19:10;98973.50;;;24.91;47.36
35704;BME280;21820;51.112;13.762;2023-11-21T09:21:36;98983.56;;;24.87;47.68
35704;BME280;21820;51.112;13.762;2023-11-21T09:24:02;98994.28;;;24.86;48.21
35704;BME280;21820;51.112;13.762;2023-11-21T09:26:28;98994.66;;;24.75;48.42
35704;BME280;21820;51.112;13.762;2023-11-21T09:28:55;98991.22;;;24.66;48.31
35704;BME280;21820;51.112;13.762;2023-11-21T09:31:21;99006.25;;;24.58;48.22
35704;BME280;21820;51.112;13.762;2023-11-21T09:33:47;99002.66;;;24.51;48.51
35704;BME280;21820;51.112;13.762;2023-11-21T09:36:13;99006.97;;;24.43;48.43
35704;BME280;21820;51.112;13.762;2023-11-21T09:38:41;99010.94;;;24.31;49.36
35704;BME280;21820;51.112;13.762;2023-11-21T09:41:08;99018.88;;;24.23;49.26
35704;BME280;21820;51.112;13.762;2023-11-21T09:43:37;99021.53;;;24.15;49.60
35704;BME280;21820;51.112;13.762;2023-11-21T09:46:03;99022.22;;;24.09;49.76
35704;BME280;21820;51.112;13.762;2023-11-21T09:48:31;99029.13;;;24.02;49.86
35704;BME280;21820;51.112;13.762;2023-11-21T09:50:57;99027.16;;;23.96;49.44
35704;BME280;21820;51.112;13.762;2023-11-21T09:53:24;99027.81;;;23.90;49.66
35704;BME280;21820;51.112;13.762;2023-11-21T09:55:51;99032.09;;;23.91;50.03
35704;BME280;21820;51.112;13.762;2023-11-21T09:58:18;99040.16;;;23.98;49.50
35704;BME280;21820;51.112;13.762;2023-11-21T10:00:44;99036.50;;;24.07;49.22
35704;BME280;21820;51.112;13.762;2023-11-21T10:03:10;99047.63;;;24.17;49.11
35704;BME280;21820;51.112;13.762;2023-11-21T10:05:36;99038.75;;;24.26;48.83
35704;BME280;21820;51.112;13.762;2023-11-21T10:08:04;99047.06;;;24.37;48.26
35704;BME280;21820;51.112;13.762;2023-11-21T10:10:30;99044.06;;;24.48;48.54
35704;BME280;21820;51.112;13.762;2023-11-21T10:12:57;99046.47;;;24.58;48.34
35704;BME280;21820;51.112;13.762;2023-11-21T10:15:26;99047.09;;;24.68;47.45
35704;BME280;21820;51.112;13.762;2023-11-21T10:17:52;99055.72;;;24.85;47.28
35704;BME280;21820;51.112;13.762;2023-11-21T10:20:19;99054.88;;;24.92;46.87
35704;BME280;21820;51.112;13.762;2023-11-21T10:22:44;99056.25;;;25.03;47.08
35704;BME280;21820;51.112;13.762;2023-11-21T10:25:10;99054.75;;;25.08;46.70
35704;BME280;21820;51.112;13.762;2023-11-21T10:27:36;99061.81;;;25.08;46.54
35704;BME280;21820;51.112;13.762;2023-11-21T10:30:04;99037.63;;;24.90;46.87
35704;BME280;21820;51.112;13.762;2023-11-21T10:32:29;99074.38;;;24.98;46.72
35704;BME280;21820;51.112;13.762;2023-11-21T10:34:57;99072.16;;;24.87;47.28
35704;BME280;21820;51.112;13.762;2023-11-21T10:37:24;99082.72;;;24.79;46.84
35704;BME280;21820;51.112;13.762;2023-11-21T10:39:50;99081.09;;;24.70;47.17
35704;BME280;21820;51.112;13.762;2023-11-21T10:42:15;99087.03;;;24.64;47.73
35704;BME280;21820;51.112;13.762;2023-11-21T10:44:42;99088.03;;;24.55;47.57
35704;BME280;21820;51.112;13.762;2023-11-21T10:47:09;99090.72;;;24.46;47.58
35704;BME280;21820;51.112;13.762;2023-11-21T10:49:37;99093.72;;;24.35;48.20
35704;BME280;21820;51.112;13.762;2023-11-21T10:52:02;99098.00;;;24.28;48.64
35704;BME280;21820;51.112;13.762;2023-11-21T10:54:28;99092.94;;;24.19;48.65
35704;BME280;21820;51.112;13.762;2023-11-21T10:56:57;99098.22;;;24.11;49.01
35704;BME280;21820;51.112;13.762;2023-11-21T10:59:24;99097.91;;;24.06;48.88
35704;BME280;21820;51.112;13.762;2023-11-21T11:01:51;99098.72;;;24.06;49.27
35704;BME280;21820;51.112;13.762;2023-11-21T11:04:18;99109.38;;;24.13;48.96
35704;BME280;21820;51.112;13.762;2023-11-21T11:06:43;99081.16;;;24.07;48.68
35704;BME280;21820;51.112;13.762;2023-11-21T11:09:13;99109.34;;;24.29;48.25
35704;BME280;21820;51.112;13.762;2023-11-21T11:11:41;99110.44;;;24.42;47.98
35704;BME280;21820;51.112;13.762;2023-11-21T11:14:08;99113.19;;;24.57;47.70
35704;BME280;21820;51.112;13.762;2023-11-21T11:16:35;99102.81;;;24.64;46.95
35704;BME280;21820;51.112;13.762;2023-11-21T11:19:02;99112.28;;;24.81;46.73
35704;BME280;21820;51.112;13.762;2023-11-21T11:21:31;99110.59;;;24.88;46.63
35704;BME280;21820;51.112;13.762;2023-11-21T11:24:10;99121.72;;;24.98;46.42
35704;BME280;21820;51.112;13.762;2023-11-21T11:29:51;99127.53;;;25.16;45.97
35704;BME280;21820;51.112;13.762;2023-11-21T11:34:35;99127.16;;;25.27;45.19
35704;BME280;21820;51.112;13.762;2023-11-21T11:39:34;99135.22;;;25.25;45.64
35704;BME280;21820;51.112;13.762;2023-11-21T11:42:01;99131.22;;;25.07;46.31
35704;BME280;21820;51.112;13.762;2023-11-21T11:47:27;99115.78;;;24.65;47.15
35704;BME280;21820;51.112;13.762;2023-11-21T11:52:33;99137.34;;;24.53;47.35
35704;BME280;21820;51.112;13.762;2023-11-21T11:55:02;99148.03;;;24.43;47.84
35704;BME280;21820;51.112;13.762;2023-11-21T11:57:29;99141.34;;;24.32;48.26
35704;BME280;21820;51.112;13.762;2023-11-21T12:00:12;99141.19;;;24.26;48.35
35704;BME280;21820;51.112;13.762;2023-11-21T12:02:41;99125.31;;;24.03;47.94
35704;BME280;21820;51.112;13.762;2023-11-21T12:05:10;99151.53;;;24.11;48.03
35704;BME280;21820;51.112;13.762;2023-11-21T12:10:17;99154.84;;;24.13;48.47
35704;BME280;21820;51.112;13.762;2023-11-21T12:12:47;99157.78;;;24.18;48.19
35704;BME280;21820;51.112;13.762;2023-11-21T12:15:12;99157.75;;;24.26;47.76
35704;BME280;21820;51.112;13.762;2023-11-21T12:17:38;99168.75;;;24.38;47.13
35704;BME280;21820;51.112;13.762;2023-11-21T12:20:04;99175.47;;;24.48;47.15
35704;BME280;21820;51.112;13.762;2023-11-21T12:22:31;99178.72;;;24.59;47.42
35704;BME280;21820;51.112;13.762;2023-11-21T12:24:57;99175.22;;;24.66;47.41
35704;BME280;21820;51.112;13.762;2023-11-21T12:27:23;99185.13;;;24.72;46.70
35704;BME280;21820;51.112;13.762;2023-11-21T12:29:48;99183.13;;;24.82;46.87
35704;BME280;21820;51.112;13.762;2023-11-21T12:32:13;99186.50;;;24.91;46.25
35704;BME280;21820;51.112;13.762;2023-11-21T12:34:43;99189.75;;;25.01;45.95
35704;BME280;21820;51.112;13.762;2023-11-21T12:37:08;99186.63;;;25.05;45.40
35704;BME280;21820;51.112;13.762;2023-11-21T12:39:33;99186.09;;;25.10;45.85
35704;BME280;21820;51.112;13.762;2023-11-21T12:41:59;99186.75;;;25.12;46.14
35704;BME280;21820;51.112;13.762;2023-11-21T12:44:25;99190.06;;;25.06;46.07
35704;BME280;21820;51.112;13.762;2023-11-21T12:46:50;99192.72;;;24.98;46.00
35704;BME280;21820;51.112;13.762;2023-11-21T12:49:16;99189.47;;;24.88;46.25
35704;BME280;21820;51.112;13.762;2023-11-21T12:51:44;99201.03;;;24.79;46.93
35704;BME280;21820;51.112;13.762;2023-11-21T12:54:11;99200.91;;;24.72;47.02
35704;BME280;21820;51.112;13.762;2023-11-21T12:56:40;99199.41;;;24.62;47.13
35704;BME280;21820;51.112;13.762;2023-11-21T12:59:06;99208.63;;;24.49;47.11